createdAt,value
2023-02-16T00:00:12.350Z,374
2023-02-16T00:02:17.797Z,375
2023-02-16T00:04:23.099Z,376
2023-02-16T00:06:28.089Z,374
2023-02-16T00:08:33.182Z,375
2023-02-16T00:10:38.314Z,376
2023-02-16T00:12:43.222Z,375
2023-02-16T00:14:48.615Z,374
2023-02-16T00:16:53.647Z,374
2023-02-16T00:18:58.828Z,374
2023-02-16T00:21:05.450Z,375
2023-02-16T00:23:10.809Z,375
2023-02-16T00:25:15.936Z,376
2023-02-16T00:27:20.951Z,375
2023-02-16T00:29:25.990Z,375
2023-02-16T00:31:31.698Z,374
2023-02-16T00:33:36.903Z,376
2023-02-16T00:35:42.816Z,374
2023-02-16T00:37:48.393Z,376
2023-02-16T00:39:53.625Z,375
2023-02-16T00:41:58.772Z,375
2023-02-16T00:44:03.929Z,375
2023-02-16T00:46:09.541Z,375
2023-02-16T00:48:14.826Z,375
2023-02-16T00:50:20.055Z,375
2023-02-16T00:52:25.067Z,374
2023-02-16T00:54:33.367Z,375
2023-02-16T00:56:38.501Z,374
2023-02-16T00:58:43.622Z,374
2023-02-16T01:00:48.834Z,375
2023-02-16T01:02:54.033Z,376
2023-02-16T01:04:59.152Z,375
2023-02-16T01:07:04.359Z,376
2023-02-16T01:09:09.409Z,375
2023-02-16T01:11:14.803Z,377
2023-02-16T01:13:19.865Z,376
2023-02-16T01:15:24.996Z,378
2023-02-16T01:17:30.130Z,377
2023-02-16T01:19:35.176Z,375
2023-02-16T01:21:41.005Z,375
2023-02-16T01:23:46.249Z,375
2023-02-16T01:25:51.719Z,375
2023-02-16T01:27:56.976Z,376
2023-02-16T01:30:02.307Z,377
2023-02-16T01:32:08.039Z,375
2023-02-16T01:34:13.340Z,376
2023-02-16T01:36:18.680Z,375
2023-02-16T01:38:23.850Z,375
2023-02-16T01:40:28.955Z,375
2023-02-16T01:42:33.858Z,377
2023-02-16T01:44:39.101Z,377
2023-02-16T01:46:44.419Z,375
2023-02-16T01:48:49.706Z,376
2023-02-16T01:50:54.778Z,376
2023-02-16T01:53:03.122Z,376
2023-02-16T01:55:08.436Z,377
2023-02-16T01:57:13.638Z,376
2023-02-16T01:59:18.744Z,376
2023-02-16T02:01:27.871Z,378
2023-02-16T02:03:33.011Z,377
2023-02-16T02:05:38.309Z,378
2023-02-16T02:07:43.466Z,375
2023-02-16T02:09:48.710Z,379
2023-02-16T02:11:53.772Z,378
2023-02-16T02:13:58.856Z,378
2023-02-16T02:16:04.053Z,378
2023-02-16T02:18:08.991Z,378
2023-02-16T02:20:14.095Z,377
2023-02-16T02:22:19.135Z,377
2023-02-16T02:24:24.241Z,376
2023-02-16T02:26:29.289Z,377
2023-02-16T02:28:34.220Z,375
2023-02-16T02:30:39.502Z,375
2023-02-16T02:32:44.582Z,375
2023-02-16T02:34:49.674Z,379
2023-02-16T02:36:54.624Z,378
2023-02-16T02:38:59.825Z,376
2023-02-16T02:41:06.436Z,375
2023-02-16T02:43:11.603Z,377
2023-02-16T02:45:16.873Z,376
2023-02-16T02:47:22.038Z,377
2023-02-16T02:49:27.163Z,377
2023-02-16T02:51:32.984Z,377
2023-02-16T02:53:38.022Z,376
2023-02-16T02:55:43.057Z,376
2023-02-16T02:57:47.970Z,376
2023-02-16T02:59:53.059Z,376
2023-02-16T03:01:58.288Z,379
2023-02-16T03:04:03.497Z,379
2023-02-16T03:06:08.542Z,377
2023-02-16T03:08:13.599Z,378
2023-02-16T03:10:18.732Z,381
2023-02-16T03:12:23.903Z,378
2023-02-16T03:14:28.884Z,377
2023-02-16T03:16:33.973Z,378
2023-02-16T03:18:39.280Z,377
2023-02-16T03:20:44.437Z,379
2023-02-16T03:22:49.424Z,377
2023-02-16T03:24:54.512Z,377
2023-02-16T03:26:59.506Z,379
2023-02-16T03:29:04.656Z,376
2023-02-16T03:31:10.590Z,375
2023-02-16T03:33:15.929Z,377
2023-02-16T03:35:21.066Z,376
2023-02-16T03:37:26.316Z,377
2023-02-16T03:39:31.405Z,377
2023-02-16T03:41:38.003Z,376
2023-02-16T03:43:43.149Z,377
2023-02-16T03:45:48.469Z,375
2023-02-16T03:47:53.764Z,374
2023-02-16T03:49:58.954Z,375
2023-02-16T03:52:04.058Z,377
2023-02-16T03:54:09.180Z,376
2023-02-16T03:56:14.216Z,375
2023-02-16T03:58:19.295Z,378
2023-02-16T04:00:24.450Z,380
2023-02-16T04:02:29.733Z,378
2023-02-16T04:04:35.030Z,376
2023-02-16T04:06:40.501Z,379
2023-02-16T04:08:45.498Z,376
2023-02-16T04:10:50.544Z,377
2023-02-16T04:12:55.775Z,377
2023-02-16T04:15:01.037Z,376
2023-02-16T04:17:06.333Z,376
2023-02-16T04:19:11.435Z,378
2023-02-16T04:21:16.361Z,376
2023-02-16T04:23:21.580Z,376
2023-02-16T04:25:26.875Z,377
2023-02-16T04:27:31.906Z,376
2023-02-16T04:29:36.923Z,376
2023-02-16T04:31:42.696Z,376
2023-02-16T04:33:47.822Z,377
2023-02-16T04:35:53.091Z,377
2023-02-16T04:37:58.534Z,376
2023-02-16T04:40:03.604Z,377
2023-02-16T04:42:08.789Z,377
2023-02-16T04:44:14.002Z,377
2023-02-16T04:46:19.228Z,377
2023-02-16T04:48:24.424Z,376
2023-02-16T04:50:29.536Z,377
2023-02-16T04:52:34.618Z,380
2023-02-16T04:54:39.930Z,377
2023-02-16T04:56:45.183Z,377
2023-02-16T04:58:50.322Z,377
2023-02-16T05:00:55.599Z,377
2023-02-16T05:03:00.730Z,375
2023-02-16T05:05:05.890Z,378
2023-02-16T05:07:10.949Z,378
2023-02-16T05:09:16.010Z,381
2023-02-16T05:11:21.194Z,379
2023-02-16T05:13:26.167Z,377
2023-02-16T05:15:31.499Z,377
2023-02-16T05:17:36.712Z,377
2023-02-16T05:19:41.802Z,381
2023-02-16T05:21:47.103Z,377
2023-02-16T05:23:52.223Z,379
2023-02-16T05:25:57.219Z,378
2023-02-16T05:28:02.500Z,376
2023-02-16T05:30:07.941Z,377
2023-02-16T05:32:13.467Z,379
2023-02-16T05:34:19.018Z,381
2023-02-16T05:36:24.012Z,379
2023-02-16T05:38:29.188Z,378
2023-02-16T05:40:34.396Z,376
2023-02-16T05:42:39.598Z,378
2023-02-16T05:44:44.709Z,378
2023-02-16T05:46:49.972Z,379
2023-02-16T05:48:55.167Z,379
2023-02-16T05:51:00.656Z,378
2023-02-16T05:53:06.737Z,375
2023-02-16T05:55:11.898Z,376
2023-02-16T05:57:16.985Z,377
2023-02-16T05:59:22.003Z,375
2023-02-16T06:01:27.061Z,376
2023-02-16T06:03:32.304Z,377
2023-02-16T06:05:37.455Z,379
2023-02-16T06:07:42.506Z,377
2023-02-16T06:09:47.448Z,377
2023-02-16T06:11:52.553Z,377
2023-02-16T06:13:57.580Z,377
2023-02-16T06:16:02.865Z,377
2023-02-16T06:18:08.622Z,376
2023-02-16T06:20:14.011Z,377
2023-02-16T06:22:19.252Z,377
2023-02-16T06:24:24.496Z,377
2023-02-16T06:26:30.025Z,377
2023-02-16T06:28:35.163Z,378
2023-02-16T06:30:40.277Z,378
2023-02-16T06:32:45.504Z,378
2023-02-16T06:34:51.102Z,377
2023-02-16T06:36:56.403Z,377
2023-02-16T06:39:01.745Z,378
2023-02-16T06:41:07.920Z,377
2023-02-16T06:43:13.239Z,377
2023-02-16T06:45:18.349Z,377
2023-02-16T06:47:23.827Z,375
2023-02-16T06:49:30.411Z,375
2023-02-16T06:51:36.057Z,377
2023-02-16T06:53:41.447Z,376
2023-02-16T06:55:46.984Z,377
2023-02-16T06:57:55.159Z,377
2023-02-16T07:00:00.812Z,377
2023-02-16T07:02:06.196Z,377
2023-02-16T07:04:11.654Z,379
2023-02-16T07:06:16.817Z,377
2023-02-16T07:08:21.975Z,379
2023-02-16T07:10:37.332Z,378
2023-02-16T07:12:55.010Z,377
2023-02-16T07:15:00.368Z,376
2023-02-16T07:17:05.692Z,376
2023-02-16T07:19:10.914Z,375
2023-02-16T07:21:16.164Z,375
2023-02-16T07:23:21.600Z,375
2023-02-16T07:25:26.832Z,379
2023-02-16T07:27:31.819Z,375
2023-02-16T07:29:37.071Z,376
2023-02-16T07:31:42.600Z,376
2023-02-16T07:33:47.961Z,376
2023-02-16T07:35:53.145Z,375
2023-02-16T07:37:58.674Z,376
2023-02-16T07:40:03.976Z,377
2023-02-16T07:42:09.302Z,376
2023-02-16T07:44:14.338Z,376
2023-02-16T07:46:19.886Z,376
2023-02-16T07:48:26.916Z,375
2023-02-16T07:50:31.920Z,379
2023-02-16T07:52:37.315Z,377
2023-02-16T07:54:42.731Z,379
2023-02-16T07:56:47.925Z,379
2023-02-16T07:58:53.030Z,378
2023-02-16T08:00:58.319Z,376
2023-02-16T08:03:04.191Z,377
2023-02-16T08:05:09.613Z,375
2023-02-16T08:07:14.607Z,375
2023-02-16T08:09:19.913Z,377
2023-02-16T08:11:24.919Z,377
2023-02-16T08:13:30.071Z,377
2023-02-16T08:15:35.225Z,378
2023-02-16T08:17:40.462Z,378
2023-02-16T08:19:45.561Z,375
2023-02-16T08:21:51.850Z,378
2023-02-16T08:23:57.450Z,377
2023-02-16T08:26:03.890Z,375
2023-02-16T08:28:10.251Z,377
2023-02-16T08:30:17.073Z,375
2023-02-16T08:32:22.997Z,375
2023-02-16T08:34:28.370Z,373
2023-02-16T08:36:33.458Z,378
2023-02-16T08:38:40.407Z,377
2023-02-16T08:40:48.886Z,376
2023-02-16T08:42:53.910Z,376
2023-02-16T08:44:59.215Z,377
2023-02-16T08:47:04.367Z,376
2023-02-16T08:49:09.472Z,376
2023-02-16T08:51:14.610Z,377
2023-02-16T08:53:20.109Z,378
2023-02-16T08:55:25.995Z,378
2023-02-16T08:57:31.654Z,381
2023-02-16T08:59:37.152Z,378
2023-02-16T09:01:42.444Z,378
2023-02-16T09:03:47.912Z,379
2023-02-16T09:05:53.921Z,378
2023-02-16T09:07:59.215Z,378
2023-02-16T09:10:04.550Z,376
2023-02-16T09:12:10.288Z,377
2023-02-16T09:14:15.558Z,378
2023-02-16T09:16:21.009Z,379
2023-02-16T09:18:26.341Z,378
2023-02-16T09:20:31.809Z,379
2023-02-16T09:22:36.909Z,378
2023-02-16T09:24:41.949Z,379
2023-02-16T09:26:47.399Z,379
2023-02-16T09:28:52.417Z,377
2023-02-16T09:30:57.978Z,379
2023-02-16T09:33:04.522Z,377
2023-02-16T09:35:09.808Z,377
2023-02-16T09:37:14.830Z,378
2023-02-16T09:39:20.059Z,379
2023-02-16T09:41:25.325Z,379
2023-02-16T09:43:30.936Z,377
2023-02-16T09:45:36.426Z,379
2023-02-16T09:47:41.684Z,377
2023-02-16T09:49:46.952Z,379
2023-02-16T09:51:52.212Z,378
2023-02-16T09:53:58.544Z,377
2023-02-16T09:56:04.533Z,377
2023-02-16T09:58:10.682Z,378
2023-02-16T10:00:15.818Z,377
2023-02-16T10:02:20.988Z,377
2023-02-16T10:04:27.028Z,377
2023-02-16T10:06:32.456Z,377
2023-02-16T10:08:37.749Z,378
2023-02-16T10:10:42.946Z,378
2023-02-16T10:12:48.204Z,378
2023-02-16T10:14:53.263Z,379
2023-02-16T10:16:58.439Z,378
2023-02-16T10:19:03.472Z,381
2023-02-16T10:21:09.271Z,381
2023-02-16T10:23:14.322Z,379
2023-02-16T10:25:19.565Z,382
2023-02-16T10:27:24.476Z,382
2023-02-16T10:29:29.550Z,382
2023-02-16T10:31:35.157Z,382
2023-02-16T10:33:40.460Z,384
2023-02-16T10:35:46.252Z,382
2023-02-16T10:37:51.753Z,378
2023-02-16T10:39:58.001Z,380
2023-02-16T10:42:03.580Z,380
2023-02-16T10:44:08.655Z,381
2023-02-16T10:46:13.820Z,381
2023-02-16T10:48:19.333Z,382
2023-02-16T10:50:24.522Z,379
2023-02-16T10:52:30.045Z,379
2023-02-16T10:54:35.121Z,382
2023-02-16T10:56:42.522Z,379
2023-02-16T10:58:47.662Z,379
2023-02-16T11:00:52.686Z,379
2023-02-16T11:02:58.014Z,378
2023-02-16T11:05:03.885Z,378
2023-02-16T11:07:09.548Z,378
2023-02-16T11:09:14.821Z,377
2023-02-16T11:11:20.027Z,377
2023-02-16T11:13:26.439Z,377
2023-02-16T11:15:31.971Z,378
2023-02-16T11:17:37.230Z,377
2023-02-16T11:19:43.235Z,378
2023-02-16T11:21:48.594Z,379
2023-02-16T11:23:53.818Z,379
2023-02-16T11:25:58.830Z,377
2023-02-16T11:28:04.001Z,379
2023-02-16T11:30:09.399Z,378
2023-02-16T11:32:15.160Z,378
2023-02-16T11:34:20.528Z,378
2023-02-16T11:36:25.502Z,377
2023-02-16T11:38:30.641Z,378
2023-02-16T11:40:35.873Z,377
2023-02-16T11:42:41.674Z,377
2023-02-16T11:44:46.701Z,377
2023-02-16T11:46:53.766Z,378
2023-02-16T11:48:59.037Z,378
2023-02-16T11:51:05.761Z,378
2023-02-16T11:53:11.666Z,379
2023-02-16T11:55:16.780Z,378
2023-02-16T11:57:21.989Z,378
2023-02-16T11:59:27.193Z,377
2023-02-16T12:01:32.508Z,379
2023-02-16T12:03:37.650Z,378
2023-02-16T12:05:42.837Z,379
2023-02-16T12:07:49.007Z,379
2023-02-16T12:09:54.968Z,382
2023-02-16T12:12:00.242Z,379
2023-02-16T12:14:05.605Z,380
2023-02-16T12:16:12.639Z,382
2023-02-16T12:18:18.087Z,379
2023-02-16T12:20:23.362Z,381
2023-02-16T12:22:29.181Z,382
2023-02-16T12:24:34.614Z,384
2023-02-16T12:26:39.842Z,384
2023-02-16T12:28:45.147Z,384
2023-02-16T12:30:50.673Z,384
2023-02-16T12:32:55.977Z,384
2023-02-16T12:35:00.935Z,382
2023-02-16T12:37:07.338Z,382
2023-02-16T12:39:13.219Z,382
2023-02-16T12:41:18.554Z,382
2023-02-16T12:43:23.698Z,384
2023-02-16T12:45:28.863Z,384
2023-02-16T12:47:33.971Z,382
2023-02-16T12:49:39.227Z,384
2023-02-16T12:51:44.378Z,379
2023-02-16T12:53:51.747Z,384
2023-02-16T12:55:57.041Z,384
2023-02-16T12:58:02.358Z,384
2023-02-16T13:00:07.840Z,382
2023-02-16T13:02:13.633Z,382
2023-02-16T13:04:18.976Z,378
2023-02-16T13:06:24.046Z,381
2023-02-16T13:08:29.420Z,381
2023-02-16T13:10:34.850Z,381
2023-02-16T13:12:41.319Z,382
2023-02-16T13:14:46.859Z,384
2023-02-16T13:16:52.464Z,380
2023-02-16T13:18:57.845Z,382
2023-02-16T13:21:03.062Z,379
2023-02-16T13:23:08.681Z,379
2023-02-16T13:25:14.272Z,382
2023-02-16T13:27:19.454Z,380
2023-02-16T13:29:25.315Z,381
2023-02-16T13:31:31.216Z,379
2023-02-16T13:33:36.629Z,379
2023-02-16T13:35:41.952Z,379
2023-02-16T13:37:47.353Z,381
2023-02-16T13:39:53.773Z,379
2023-02-16T13:41:59.422Z,381
2023-02-16T13:44:05.693Z,381
2023-02-16T13:46:11.518Z,381
2023-02-16T13:48:17.062Z,379
2023-02-16T13:50:26.588Z,381
2023-02-16T13:52:33.868Z,381
2023-02-16T13:54:39.552Z,381
2023-02-16T13:56:44.482Z,382
2023-02-16T13:58:50.356Z,382
2023-02-16T14:00:56.154Z,381
2023-02-16T14:03:01.517Z,381
2023-02-16T14:05:06.534Z,381
2023-02-16T14:07:31.588Z,382
2023-02-16T14:09:40.178Z,382
2023-02-16T14:21:56.017Z,381
2023-02-16T14:24:34.181Z,382
2023-02-16T14:29:20.632Z,382
2023-02-16T14:31:40.526Z,382
2023-02-16T14:33:46.543Z,381
2023-02-16T14:35:51.934Z,381
2023-02-16T14:38:10.870Z,381
2023-02-16T14:40:16.311Z,379
2023-02-16T14:42:21.768Z,382
2023-02-16T14:44:27.016Z,382
2023-02-16T14:46:32.196Z,379
2023-02-16T14:48:38.450Z,381
2023-02-16T14:50:44.836Z,381
2023-02-16T14:52:50.205Z,382
2023-02-16T14:54:55.267Z,381
2023-02-16T14:57:00.519Z,381
2023-02-16T14:59:05.878Z,382
2023-02-16T15:01:13.160Z,381
2023-02-16T15:03:18.937Z,382
2023-02-16T15:05:26.453Z,382
2023-02-16T15:07:32.560Z,382
2023-02-16T15:09:38.837Z,382
2023-02-16T15:11:44.435Z,382
2023-02-16T15:13:49.673Z,379
2023-02-16T15:15:56.521Z,382
2023-02-16T15:18:03.377Z,382
2023-02-16T15:20:09.342Z,381
2023-02-16T15:22:15.015Z,382
2023-02-16T15:24:20.860Z,381
2023-02-16T15:26:26.429Z,382
2023-02-16T15:28:31.985Z,381
2023-02-16T15:30:37.882Z,381
2023-02-16T15:32:43.339Z,381
2023-02-16T15:34:49.139Z,381
2023-02-16T15:36:54.801Z,382
2023-02-16T15:39:02.374Z,381
2023-02-16T15:41:08.875Z,381
2023-02-16T15:43:14.238Z,382
2023-02-16T15:45:20.769Z,381
2023-02-16T15:47:30.950Z,382
2023-02-16T15:49:36.249Z,381
2023-02-16T15:51:45.205Z,381
2023-02-16T15:53:50.584Z,381
2023-02-16T15:55:59.756Z,382
2023-02-16T15:58:08.200Z,379
2023-02-16T16:00:15.776Z,381
2023-02-16T16:05:51.358Z,382
2023-02-16T16:07:57.160Z,381
2023-02-16T16:10:02.685Z,382
2023-02-16T16:12:08.471Z,381
2023-02-16T16:14:15.528Z,379
2023-02-16T16:16:27.488Z,381
2023-02-16T16:18:34.242Z,381
2023-02-16T16:20:40.682Z,381
2023-02-16T16:22:49.067Z,382
2023-02-16T16:24:55.665Z,381
2023-02-16T16:27:02.019Z,381
2023-02-16T16:29:09.655Z,382
2023-02-16T16:31:15.656Z,381
2023-02-16T16:33:22.832Z,382
2023-02-16T16:35:28.195Z,382
2023-02-16T16:37:33.957Z,382
2023-02-16T16:39:42.931Z,381
2023-02-16T16:41:55.856Z,380
2023-02-16T16:44:02.341Z,380
2023-02-16T16:46:08.753Z,382
2023-02-16T16:48:19.614Z,381
2023-02-16T16:50:26.599Z,382
2023-02-16T16:52:37.751Z,382
2023-02-16T16:54:48.744Z,382
2023-02-16T16:56:55.299Z,381
2023-02-16T16:59:05.417Z,382
2023-02-16T17:01:13.847Z,381
2023-02-16T17:03:21.990Z,382
2023-02-16T17:05:33.215Z,381
2023-02-16T17:07:40.375Z,379
2023-02-16T17:09:51.255Z,379
2023-02-16T17:11:58.479Z,382
2023-02-16T17:14:08.872Z,379
2023-02-16T17:16:21.994Z,381
2023-02-16T17:18:32.798Z,382
2023-02-16T17:20:41.717Z,381
2023-02-16T17:22:54.383Z,381
2023-02-16T17:25:01.874Z,382
2023-02-16T17:27:14.108Z,382
2023-02-16T17:29:21.885Z,381
2023-02-16T17:31:30.373Z,381
2023-02-16T17:33:41.248Z,381
2023-02-16T17:35:50.587Z,381
2023-02-16T17:37:59.434Z,382
2023-02-16T17:40:09.746Z,382
2023-02-16T17:42:19.900Z,381
2023-02-16T17:44:28.899Z,379
2023-02-16T17:46:43.755Z,382
2023-02-16T17:48:53.875Z,382
2023-02-16T17:51:02.701Z,382
2023-02-16T17:53:13.496Z,382
2023-02-16T17:55:22.348Z,379
2023-02-16T17:57:42.064Z,381
2023-02-16T17:59:52.237Z,381
2023-02-16T18:02:01.100Z,381
2023-02-16T18:04:11.609Z,379
2023-02-16T18:06:21.055Z,382
2023-02-16T18:08:29.872Z,382
2023-02-16T18:10:38.548Z,379
2023-02-16T18:12:47.255Z,381
2023-02-16T18:15:00.638Z,381
2023-02-16T18:17:17.021Z,381
2023-02-16T18:19:28.445Z,381
2023-02-16T18:21:52.339Z,379
2023-02-16T18:24:11.043Z,381
2023-02-16T18:26:20.937Z,381
2023-02-16T18:28:29.199Z,381
2023-02-16T18:30:38.261Z,382
2023-02-16T18:32:47.548Z,381
2023-02-16T18:35:01.813Z,382
2023-02-16T18:37:21.525Z,379
2023-02-16T18:39:29.124Z,377
2023-02-16T18:41:39.031Z,382
2023-02-16T18:43:50.709Z,376
2023-02-16T18:46:04.071Z,377
2023-02-16T18:48:13.958Z,378
2023-02-16T18:50:27.091Z,377
2023-02-16T18:52:40.873Z,377
2023-02-16T18:54:49.968Z,378
2023-02-16T18:57:02.840Z,378
2023-02-16T18:59:11.483Z,378
2023-02-16T19:01:30.301Z,378
2023-02-16T19:03:41.031Z,378
2023-02-16T19:05:50.753Z,377
2023-02-16T19:07:59.668Z,378
2023-02-16T19:10:08.286Z,378
2023-02-16T19:12:33.517Z,378
2023-02-16T19:14:41.626Z,379
2023-02-16T19:16:50.243Z,381
2023-02-16T19:19:07.413Z,379
2023-02-16T19:21:18.916Z,377
2023-02-16T19:23:34.768Z,379
2023-02-16T19:25:46.672Z,378
2023-02-16T19:27:56.408Z,378
2023-02-16T19:30:12.707Z,381
2023-02-16T19:32:23.308Z,382
2023-02-16T19:34:33.767Z,381
2023-02-16T19:36:45.361Z,378
2023-02-16T19:38:52.611Z,384
2023-02-16T19:41:10.174Z,379
2023-02-16T19:43:21.233Z,378
2023-02-16T19:45:46.802Z,377
2023-02-16T19:47:56.022Z,377
2023-02-16T19:50:05.608Z,377
2023-02-16T19:52:13.984Z,378
2023-02-16T19:54:22.366Z,377
2023-02-16T19:56:37.060Z,377
2023-02-16T19:58:52.273Z,378
2023-02-16T20:01:01.084Z,377
2023-02-16T20:03:09.813Z,377
2023-02-16T20:05:30.240Z,379
2023-02-16T20:07:39.103Z,378
2023-02-16T20:09:47.509Z,378
2023-02-16T20:12:04.088Z,377
2023-02-16T20:14:17.085Z,378
2023-02-16T20:16:25.454Z,378
2023-02-16T20:18:40.707Z,378
2023-02-16T20:20:54.648Z,378
2023-02-16T20:23:04.651Z,377
2023-02-16T20:25:19.138Z,378
2023-02-16T20:27:29.457Z,377
2023-02-16T20:29:45.444Z,377
2023-02-16T20:31:54.301Z,376
2023-02-16T20:34:03.829Z,377
2023-02-16T20:36:14.591Z,377
2023-02-16T20:38:27.683Z,378
2023-02-16T20:40:45.874Z,377
2023-02-16T20:42:53.146Z,378
2023-02-16T20:45:05.132Z,378
2023-02-16T20:47:15.053Z,377
2023-02-16T20:49:24.990Z,378
2023-02-16T20:51:36.909Z,378
2023-02-16T20:53:45.189Z,376
2023-02-16T20:55:59.792Z,377
2023-02-16T20:58:12.224Z,378
2023-02-16T21:00:20.443Z,378
2023-02-16T21:02:30.126Z,378
2023-02-16T21:04:39.136Z,378
2023-02-16T21:06:52.441Z,376
2023-02-16T21:09:00.772Z,378
2023-02-16T21:11:08.404Z,378
2023-02-16T21:13:19.295Z,379
2023-02-16T21:18:56.991Z,377
2023-02-16T21:21:05.864Z,378
2023-02-16T21:23:14.389Z,377
2023-02-16T21:25:23.220Z,377
2023-02-16T21:27:32.238Z,378
2023-02-16T21:29:42.042Z,379
2023-02-16T21:31:49.679Z,379
2023-02-16T21:33:57.110Z,378
2023-02-16T21:36:06.499Z,378
2023-02-16T21:38:15.454Z,377
2023-02-16T21:40:25.970Z,379
2023-02-16T21:42:34.843Z,378
2023-02-16T21:44:41.714Z,379
2023-02-16T21:46:47.958Z,377
2023-02-16T21:48:54.144Z,377
2023-02-16T21:51:01.126Z,378
2023-02-16T21:53:07.141Z,377
2023-02-16T21:55:12.511Z,378
2023-02-16T21:57:18.563Z,377
2023-02-16T21:59:24.008Z,377
2023-02-16T22:01:29.627Z,377
2023-02-16T22:03:35.014Z,377
2023-02-16T22:05:40.559Z,377
2023-02-16T22:07:45.863Z,377
2023-02-16T22:09:51.035Z,377
2023-02-16T22:11:57.485Z,379
2023-02-16T22:14:02.906Z,378
2023-02-16T22:16:09.342Z,379
2023-02-16T22:18:14.846Z,376
2023-02-16T22:20:20.087Z,377
2023-02-16T22:22:25.425Z,374
2023-02-16T22:24:30.420Z,375
2023-02-16T22:26:35.488Z,375
2023-02-16T22:28:40.838Z,377
2023-02-16T22:30:47.829Z,378
2023-02-16T22:32:53.076Z,379
2023-02-16T22:34:58.630Z,378
2023-02-16T22:37:03.784Z,378
2023-02-16T22:39:08.871Z,377
2023-02-16T22:41:13.939Z,377
2023-02-16T22:43:18.938Z,377
2023-02-16T22:45:24.089Z,378
2023-02-16T22:47:29.260Z,377
2023-02-16T22:49:34.221Z,378
2023-02-16T22:51:39.237Z,378
2023-02-16T22:53:44.462Z,377
2023-02-16T22:55:49.496Z,377
2023-02-16T22:57:55.919Z,377
2023-02-16T23:00:01.000Z,377
2023-02-16T23:02:06.233Z,378
2023-02-16T23:04:11.669Z,377
2023-02-16T23:06:17.254Z,377
2023-02-16T23:08:22.386Z,376
2023-02-16T23:10:27.719Z,377
2023-02-16T23:12:32.892Z,376
2023-02-16T23:14:37.919Z,378
2023-02-16T23:16:43.370Z,376
2023-02-16T23:18:48.615Z,377
2023-02-16T23:20:53.996Z,378
2023-02-16T23:23:00.319Z,377
2023-02-16T23:25:05.590Z,377
2023-02-16T23:27:10.762Z,378
2023-02-16T23:29:15.909Z,378
2023-02-16T23:31:21.507Z,377
2023-02-16T23:33:26.877Z,377
2023-02-16T23:35:32.173Z,378
2023-02-16T23:37:37.749Z,377
2023-02-16T23:39:43.029Z,378
2023-02-16T23:41:48.124Z,377
2023-02-16T23:43:53.195Z,378
2023-02-16T23:45:58.369Z,379
2023-02-16T23:48:03.609Z,382
2023-02-16T23:50:08.626Z,378
2023-02-16T23:52:13.683Z,376
2023-02-16T23:54:18.901Z,377
2023-02-16T23:56:23.995Z,378
2023-02-16T23:58:29.162Z,375
